sensor_id;sensor_type;location;lat;lon;timestamp;P1;durP1;ratioP1;P2;durP2;ratioP2
19575;SDS011;41589;51.196;7.074;2023-07-02T00:01:04;2.00;;;1.10;;
19575;SDS011;41589;51.196;7.074;2023-07-02T00:06:04;2.10;;;1.33;;
19575;SDS011;41589;51.196;7.074;2023-07-02T00:11:05;1.30;;;1.20;;
19575;SDS011;41589;51.196;7.074;2023-07-02T00:16:05;1.40;;;1.30;;
19575;SDS011;41589;51.196;7.074;2023-07-02T00:21:05;1.40;;;1.27;;
19575;SDS011;41589;51.196;7.074;2023-07-02T00:26:06;1.30;;;1.20;;
19575;SDS011;41589;51.196;7.074;2023-07-02T00:31:06;1.00;;;1.00;;
19575;SDS011;41589;51.196;7.074;2023-07-02T00:36:08;2.47;;;1.50;;
19575;SDS011;41589;51.196;7.074;2023-07-02T00:41:14;2.07;;;1.40;;
19575;SDS011;41589;51.196;7.074;2023-07-02T00:46:18;1.30;;;1.30;;
19575;SDS011;41589;51.196;7.074;2023-07-02T00:51:21;1.20;;;1.10;;
19575;SDS011;41589;51.196;7.074;2023-07-02T00:56:23;1.47;;;1.37;;
19575;SDS011;41589;51.196;7.074;2023-07-02T01:01:25;1.20;;;1.20;;
19575;SDS011;41589;51.196;7.074;2023-07-02T01:06:29;1.40;;;1.30;;
19575;SDS011;41589;51.196;7.074;2023-07-02T01:11:45;1.60;;;1.50;;
19575;SDS011;41589;51.196;7.074;2023-07-02T01:16:50;1.43;;;1.33;;
19575;SDS011;41589;51.196;7.074;2023-07-02T01:21:54;2.13;;;1.93;;
19575;SDS011;41589;51.196;7.074;2023-07-02T01:26:54;1.90;;;1.70;;
19575;SDS011;41589;51.196;7.074;2023-07-02T01:31:56;2.20;;;2.00;;
19575;SDS011;41589;51.196;7.074;2023-07-02T01:36:57;2.10;;;1.97;;
19575;SDS011;41589;51.196;7.074;2023-07-02T01:42:10;3.23;;;2.20;;
19575;SDS011;41589;51.196;7.074;2023-07-02T01:47:17;2.33;;;2.00;;
19575;SDS011;41589;51.196;7.074;2023-07-02T01:52:19;2.83;;;2.00;;
19575;SDS011;41589;51.196;7.074;2023-07-02T01:57:20;2.57;;;2.33;;
19575;SDS011;41589;51.196;7.074;2023-07-02T02:02:20;2.37;;;2.17;;
19575;SDS011;41589;51.196;7.074;2023-07-02T02:07:20;3.53;;;2.20;;
19575;SDS011;41589;51.196;7.074;2023-07-02T02:12:21;2.60;;;2.40;;
19575;SDS011;41589;51.196;7.074;2023-07-02T02:17:21;2.57;;;2.37;;
19575;SDS011;41589;51.196;7.074;2023-07-02T02:22:23;2.73;;;2.40;;
19575;SDS011;41589;51.196;7.074;2023-07-02T02:27:24;2.60;;;2.43;;
19575;SDS011;41589;51.196;7.074;2023-07-02T02:32:24;3.00;;;2.70;;
19575;SDS011;41589;51.196;7.074;2023-07-02T02:37:24;3.23;;;2.53;;
19575;SDS011;41589;51.196;7.074;2023-07-02T02:42:25;3.10;;;2.80;;
19575;SDS011;41589;51.196;7.074;2023-07-02T02:47:26;3.03;;;2.73;;
19575;SDS011;41589;51.196;7.074;2023-07-02T02:52:26;3.57;;;3.00;;
19575;SDS011;41589;51.196;7.074;2023-07-02T02:57:27;3.30;;;3.10;;
19575;SDS011;41589;51.196;7.074;2023-07-02T03:02:27;3.10;;;2.90;;
19575;SDS011;41589;51.196;7.074;2023-07-02T03:07:28;2.83;;;2.57;;
19575;SDS011;41589;51.196;7.074;2023-07-02T03:12:29;3.30;;;3.00;;
19575;SDS011;41589;51.196;7.074;2023-07-02T03:17:29;3.40;;;3.10;;
19575;SDS011;41589;51.196;7.074;2023-07-02T03:22:30;3.80;;;3.40;;
19575;SDS011;41589;51.196;7.074;2023-07-02T03:27:30;3.83;;;3.47;;
19575;SDS011;41589;51.196;7.074;2023-07-02T03:32:30;3.90;;;3.60;;
19575;SDS011;41589;51.196;7.074;2023-07-02T03:37:31;3.93;;;3.53;;
19575;SDS011;41589;51.196;7.074;2023-07-02T03:42:32;3.57;;;3.30;;
19575;SDS011;41589;51.196;7.074;2023-07-02T03:47:33;4.10;;;3.70;;
19575;SDS011;41589;51.196;7.074;2023-07-02T03:52:33;4.07;;;3.30;;
19575;SDS011;41589;51.196;7.074;2023-07-02T03:57:33;4.10;;;3.80;;
19575;SDS011;41589;51.196;7.074;2023-07-02T04:02:34;3.83;;;3.53;;
19575;SDS011;41589;51.196;7.074;2023-07-02T04:07:34;3.97;;;3.60;;
19575;SDS011;41589;51.196;7.074;2023-07-02T04:12:34;3.70;;;3.40;;
19575;SDS011;41589;51.196;7.074;2023-07-02T04:17:35;4.20;;;3.83;;
19575;SDS011;41589;51.196;7.074;2023-07-02T04:22:35;4.20;;;3.80;;
19575;SDS011;41589;51.196;7.074;2023-07-02T04:27:35;4.77;;;4.27;;
19575;SDS011;41589;51.196;7.074;2023-07-02T04:32:36;4.47;;;4.07;;
19575;SDS011;41589;51.196;7.074;2023-07-02T04:37:39;4.77;;;4.27;;
19575;SDS011;41589;51.196;7.074;2023-07-02T04:42:41;4.57;;;4.13;;
19575;SDS011;41589;51.196;7.074;2023-07-02T04:47:46;5.77;;;5.03;;
19575;SDS011;41589;51.196;7.074;2023-07-02T04:52:47;5.33;;;4.83;;
19575;SDS011;41589;51.196;7.074;2023-07-02T04:57:47;5.10;;;4.60;;
19575;SDS011;41589;51.196;7.074;2023-07-02T05:02:48;5.13;;;4.73;;
19575;SDS011;41589;51.196;7.074;2023-07-02T05:07:48;4.37;;;4.07;;
19575;SDS011;41589;51.196;7.074;2023-07-02T05:12:48;4.47;;;4.17;;
19575;SDS011;41589;51.196;7.074;2023-07-02T05:17:49;4.53;;;4.20;;
19575;SDS011;41589;51.196;7.074;2023-07-02T05:22:49;4.97;;;4.57;;
19575;SDS011;41589;51.196;7.074;2023-07-02T05:27:49;5.17;;;4.77;;
19575;SDS011;41589;51.196;7.074;2023-07-02T05:32:50;5.37;;;4.87;;
19575;SDS011;41589;51.196;7.074;2023-07-02T05:37:50;4.63;;;4.23;;
19575;SDS011;41589;51.196;7.074;2023-07-02T05:42:50;5.10;;;4.60;;
19575;SDS011;41589;51.196;7.074;2023-07-02T05:47:51;5.77;;;5.03;;
19575;SDS011;41589;51.196;7.074;2023-07-02T05:52:51;5.33;;;4.93;;
19575;SDS011;41589;51.196;7.074;2023-07-02T05:57:52;5.40;;;4.90;;
19575;SDS011;41589;51.196;7.074;2023-07-02T06:02:52;5.10;;;4.60;;
19575;SDS011;41589;51.196;7.074;2023-07-02T06:07:52;5.00;;;4.60;;
19575;SDS011;41589;51.196;7.074;2023-07-02T06:12:53;5.03;;;4.63;;
19575;SDS011;41589;51.196;7.074;2023-07-02T06:17:54;5.60;;;5.10;;
19575;SDS011;41589;51.196;7.074;2023-07-02T06:22:54;5.00;;;4.60;;
19575;SDS011;41589;51.196;7.074;2023-07-02T06:27:54;5.23;;;4.73;;
19575;SDS011;41589;51.196;7.074;2023-07-02T06:32:55;4.60;;;4.30;;
19575;SDS011;41589;51.196;7.074;2023-07-02T06:37:55;4.93;;;4.53;;
19575;SDS011;41589;51.196;7.074;2023-07-02T06:42:56;5.23;;;4.73;;
19575;SDS011;41589;51.196;7.074;2023-07-02T06:47:56;5.03;;;4.63;;
19575;SDS011;41589;51.196;7.074;2023-07-02T06:52:57;5.00;;;4.60;;
19575;SDS011;41589;51.196;7.074;2023-07-02T06:57:57;4.93;;;4.43;;
19575;SDS011;41589;51.196;7.074;2023-07-02T07:02:57;4.50;;;4.10;;
19575;SDS011;41589;51.196;7.074;2023-07-02T07:07:58;4.53;;;4.20;;
19575;SDS011;41589;51.196;7.074;2023-07-02T07:13:01;5.20;;;4.70;;
19575;SDS011;41589;51.196;7.074;2023-07-02T07:18:02;5.27;;;4.43;;
19575;SDS011;41589;51.196;7.074;2023-07-02T07:23:04;4.80;;;4.40;;
19575;SDS011;41589;51.196;7.074;2023-07-02T07:28:05;6.10;;;4.87;;
19575;SDS011;41589;51.196;7.074;2023-07-02T07:33:06;4.73;;;4.27;;
19575;SDS011;41589;51.196;7.074;2023-07-02T07:38:06;5.23;;;4.57;;
19575;SDS011;41589;51.196;7.074;2023-07-02T07:43:06;4.00;;;3.70;;
19575;SDS011;41589;51.196;7.074;2023-07-02T07:48:07;4.37;;;3.90;;
19575;SDS011;41589;51.196;7.074;2023-07-02T07:53:07;3.60;;;3.30;;
19575;SDS011;41589;51.196;7.074;2023-07-02T07:58:07;4.57;;;4.17;;
19575;SDS011;41589;51.196;7.074;2023-07-02T08:03:09;3.40;;;3.20;;
19575;SDS011;41589;51.196;7.074;2023-07-02T08:08:10;3.97;;;3.67;;
19575;SDS011;41589;51.196;7.074;2023-07-02T08:13:10;3.70;;;3.40;;
19575;SDS011;41589;51.196;7.074;2023-07-02T08:18:12;4.43;;;4.10;;
19575;SDS011;41589;51.196;7.074;2023-07-02T08:23:13;4.70;;;3.87;;
19575;SDS011;41589;51.196;7.074;2023-07-02T08:28:13;4.23;;;3.87;;
19575;SDS011;41589;51.196;7.074;2023-07-02T08:33:14;4.03;;;3.73;;
19575;SDS011;41589;51.196;7.074;2023-07-02T08:38:14;4.20;;;3.80;;
19575;SDS011;41589;51.196;7.074;2023-07-02T08:43:15;4.03;;;3.63;;
19575;SDS011;41589;51.196;7.074;2023-07-02T08:48:15;4.07;;;3.70;;
19575;SDS011;41589;51.196;7.074;2023-07-02T08:53:17;5.83;;;3.80;;
19575;SDS011;41589;51.196;7.074;2023-07-02T08:58:17;4.50;;;4.10;;
19575;SDS011;41589;51.196;7.074;2023-07-02T09:03:17;4.33;;;3.93;;
19575;SDS011;41589;51.196;7.074;2023-07-02T09:08:24;4.17;;;3.77;;
19575;SDS011;41589;51.196;7.074;2023-07-02T09:13:26;4.50;;;4.10;;
19575;SDS011;41589;51.196;7.074;2023-07-02T09:18:26;4.50;;;4.10;;
19575;SDS011;41589;51.196;7.074;2023-07-02T09:23:34;4.33;;;3.93;;
19575;SDS011;41589;51.196;7.074;2023-07-02T09:28:35;5.23;;;4.03;;
19575;SDS011;41589;51.196;7.074;2023-07-02T09:33:36;4.37;;;3.97;;
19575;SDS011;41589;51.196;7.074;2023-07-02T09:38:37;4.60;;;3.90;;
19575;SDS011;41589;51.196;7.074;2023-07-02T09:43:37;4.63;;;4.27;;
19575;SDS011;41589;51.196;7.074;2023-07-02T09:48:38;4.50;;;4.07;;
19575;SDS011;41589;51.196;7.074;2023-07-02T09:53:38;4.40;;;4.00;;
19575;SDS011;41589;51.196;7.074;2023-07-02T09:58:38;5.27;;;4.30;;
19575;SDS011;41589;51.196;7.074;2023-07-02T10:03:39;4.37;;;3.97;;
19575;SDS011;41589;51.196;7.074;2023-07-02T10:08:39;5.33;;;4.37;;
19575;SDS011;41589;51.196;7.074;2023-07-02T10:13:40;4.37;;;3.97;;
19575;SDS011;41589;51.196;7.074;2023-07-02T10:18:41;4.33;;;3.83;;
19575;SDS011;41589;51.196;7.074;2023-07-02T10:23:41;4.03;;;3.73;;
19575;SDS011;41589;51.196;7.074;2023-07-02T10:28:42;4.13;;;3.77;;
19575;SDS011;41589;51.196;7.074;2023-07-02T10:33:43;4.77;;;4.37;;
19575;SDS011;41589;51.196;7.074;2023-07-02T10:38:44;4.60;;;4.20;;
19575;SDS011;41589;51.196;7.074;2023-07-02T10:43:44;4.80;;;4.40;;
19575;SDS011;41589;51.196;7.074;2023-07-02T10:48:51;4.73;;;4.33;;
19575;SDS011;41589;51.196;7.074;2023-07-02T10:53:56;4.87;;;4.47;;
19575;SDS011;41589;51.196;7.074;2023-07-02T10:58:59;4.77;;;4.37;;
19575;SDS011;41589;51.196;7.074;2023-07-02T11:04:00;4.33;;;3.93;;
19575;SDS011;41589;51.196;7.074;2023-07-02T11:09:14;3.23;;;2.93;;
19575;SDS011;41589;51.196;7.074;2023-07-02T11:14:25;4.63;;;3.43;;
19575;SDS011;41589;51.196;7.074;2023-07-02T11:19:33;3.67;;;3.00;;
19575;SDS011;41589;51.196;7.074;2023-07-02T11:24:34;3.97;;;3.53;;
19575;SDS011;41589;51.196;7.074;2023-07-02T11:29:36;3.50;;;3.20;;
19575;SDS011;41589;51.196;7.074;2023-07-02T11:34:39;3.33;;;3.03;;
19575;SDS011;41589;51.196;7.074;2023-07-02T11:39:39;4.00;;;3.37;;
19575;SDS011;41589;51.196;7.074;2023-07-02T11:44:42;3.30;;;3.00;;
19575;SDS011;41589;51.196;7.074;2023-07-02T11:49:43;3.73;;;2.93;;
19575;SDS011;41589;51.196;7.074;2023-07-02T11:54:43;3.40;;;3.10;;
19575;SDS011;41589;51.196;7.074;2023-07-02T11:59:44;2.97;;;2.60;;
19575;SDS011;41589;51.196;7.074;2023-07-02T12:04:44;3.10;;;2.80;;
19575;SDS011;41589;51.196;7.074;2023-07-02T12:09:44;3.03;;;2.73;;
19575;SDS011;41589;51.196;7.074;2023-07-02T12:14:45;3.33;;;2.93;;
19575;SDS011;41589;51.196;7.074;2023-07-02T12:19:45;4.10;;;3.13;;
19575;SDS011;41589;51.196;7.074;2023-07-02T12:24:45;3.40;;;3.10;;
19575;SDS011;41589;51.196;7.074;2023-07-02T12:29:46;3.43;;;3.00;;
19575;SDS011;41589;51.196;7.074;2023-07-02T12:34:46;3.10;;;2.87;;
19575;SDS011;41589;51.196;7.074;2023-07-02T12:39:47;3.07;;;2.80;;
19575;SDS011;41589;51.196;7.074;2023-07-02T12:44:47;3.13;;;2.83;;
19575;SDS011;41589;51.196;7.074;2023-07-02T12:49:47;2.97;;;2.50;;
19575;SDS011;41589;51.196;7.074;2023-07-02T12:54:48;2.77;;;2.57;;
19575;SDS011;41589;51.196;7.074;2023-07-02T12:59:48;3.17;;;2.80;;
19575;SDS011;41589;51.196;7.074;2023-07-02T13:04:49;2.60;;;2.40;;
19575;SDS011;41589;51.196;7.074;2023-07-02T13:09:49;2.87;;;2.57;;
19575;SDS011;41589;51.196;7.074;2023-07-02T13:14:50;2.40;;;2.20;;
19575;SDS011;41589;51.196;7.074;2023-07-02T13:19:50;2.40;;;2.20;;
19575;SDS011;41589;51.196;7.074;2023-07-02T13:24:50;3.03;;;2.40;;
19575;SDS011;41589;51.196;7.074;2023-07-02T13:29:51;2.40;;;2.20;;
19575;SDS011;41589;51.196;7.074;2023-07-02T13:34:53;2.53;;;2.33;;
19575;SDS011;41589;51.196;7.074;2023-07-02T13:39:55;2.77;;;2.53;;
19575;SDS011;41589;51.196;7.074;2023-07-02T13:45:15;2.33;;;2.13;;
19575;SDS011;41589;51.196;7.074;2023-07-02T13:50:15;2.17;;;2.03;;
19575;SDS011;41589;51.196;7.074;2023-07-02T13:55:16;2.80;;;2.60;;
19575;SDS011;41589;51.196;7.074;2023-07-02T14:00:16;2.50;;;2.30;;
19575;SDS011;41589;51.196;7.074;2023-07-02T14:05:17;3.37;;;3.00;;
19575;SDS011;41589;51.196;7.074;2023-07-02T14:10:18;3.23;;;2.93;;
19575;SDS011;41589;51.196;7.074;2023-07-02T14:15:18;2.73;;;2.47;;
19575;SDS011;41589;51.196;7.074;2023-07-02T14:20:19;2.90;;;2.70;;
19575;SDS011;41589;51.196;7.074;2023-07-02T14:25:19;3.03;;;2.73;;
19575;SDS011;41589;51.196;7.074;2023-07-02T14:30:19;3.63;;;3.33;;
19575;SDS011;41589;51.196;7.074;2023-07-02T14:35:20;2.70;;;2.50;;
19575;SDS011;41589;51.196;7.074;2023-07-02T14:40:25;3.33;;;2.83;;
19575;SDS011;41589;51.196;7.074;2023-07-02T14:45:28;3.13;;;2.90;;
19575;SDS011;41589;51.196;7.074;2023-07-02T14:50:34;3.27;;;3.00;;
19575;SDS011;41589;51.196;7.074;2023-07-02T14:55:35;3.60;;;3.30;;
19575;SDS011;41589;51.196;7.074;2023-07-02T15:00:35;3.53;;;3.23;;
19575;SDS011;41589;51.196;7.074;2023-07-02T15:05:36;2.90;;;2.70;;
19575;SDS011;41589;51.196;7.074;2023-07-02T15:10:36;3.33;;;3.03;;
19575;SDS011;41589;51.196;7.074;2023-07-02T15:15:39;3.60;;;3.30;;
19575;SDS011;41589;51.196;7.074;2023-07-02T15:20:40;3.73;;;2.97;;
19575;SDS011;41589;51.196;7.074;2023-07-02T15:25:49;3.00;;;2.80;;
19575;SDS011;41589;51.196;7.074;2023-07-02T15:30:55;2.70;;;2.50;;
19575;SDS011;41589;51.196;7.074;2023-07-02T15:35:58;2.93;;;2.73;;
19575;SDS011;41589;51.196;7.074;2023-07-02T15:41:07;3.80;;;3.00;;
19575;SDS011;41589;51.196;7.074;2023-07-02T15:46:13;3.03;;;2.83;;
19575;SDS011;41589;51.196;7.074;2023-07-02T15:51:15;2.90;;;2.70;;
19575;SDS011;41589;51.196;7.074;2023-07-02T15:56:15;4.20;;;3.17;;
19575;SDS011;41589;51.196;7.074;2023-07-02T16:01:17;3.13;;;2.90;;
19575;SDS011;41589;51.196;7.074;2023-07-02T16:06:18;3.17;;;2.87;;
19575;SDS011;41589;51.196;7.074;2023-07-02T16:11:19;3.63;;;3.03;;
19575;SDS011;41589;51.196;7.074;2023-07-02T16:16:19;3.60;;;3.30;;
19575;SDS011;41589;51.196;7.074;2023-07-02T16:21:20;3.07;;;2.80;;
19575;SDS011;41589;51.196;7.074;2023-07-02T16:26:20;3.77;;;3.00;;
19575;SDS011;41589;51.196;7.074;2023-07-02T16:31:20;3.67;;;3.20;;
19575;SDS011;41589;51.196;7.074;2023-07-02T16:36:21;3.30;;;3.00;;
19575;SDS011;41589;51.196;7.074;2023-07-02T16:41:24;3.13;;;2.83;;
19575;SDS011;41589;51.196;7.074;2023-07-02T16:46:25;3.03;;;2.83;;
19575;SDS011;41589;51.196;7.074;2023-07-02T16:51:25;3.40;;;3.10;;
19575;SDS011;41589;51.196;7.074;2023-07-02T16:56:25;3.43;;;3.00;;
19575;SDS011;41589;51.196;7.074;2023-07-02T17:01:26;3.00;;;2.80;;
19575;SDS011;41589;51.196;7.074;2023-07-02T17:06:26;3.43;;;3.13;;
19575;SDS011;41589;51.196;7.074;2023-07-02T17:11:26;3.17;;;2.87;;
19575;SDS011;41589;51.196;7.074;2023-07-02T17:16:27;2.93;;;2.70;;
19575;SDS011;41589;51.196;7.074;2023-07-02T17:21:27;3.03;;;2.83;;
19575;SDS011;41589;51.196;7.074;2023-07-02T17:26:28;3.63;;;3.33;;
19575;SDS011;41589;51.196;7.074;2023-07-02T17:31:28;3.67;;;3.37;;
19575;SDS011;41589;51.196;7.074;2023-07-02T17:36:28;4.10;;;3.53;;
19575;SDS011;41589;51.196;7.074;2023-07-02T17:41:29;3.23;;;2.80;;
19575;SDS011;41589;51.196;7.074;2023-07-02T17:46:30;3.27;;;2.83;;
19575;SDS011;41589;51.196;7.074;2023-07-02T17:51:30;3.47;;;3.10;;
19575;SDS011;41589;51.196;7.074;2023-07-02T17:56:32;2.97;;;2.77;;
19575;SDS011;41589;51.196;7.074;2023-07-02T18:01:38;3.10;;;2.80;;
19575;SDS011;41589;51.196;7.074;2023-07-02T18:06:42;3.30;;;3.00;;
19575;SDS011;41589;51.196;7.074;2023-07-02T18:11:45;3.30;;;2.90;;
19575;SDS011;41589;51.196;7.074;2023-07-02T18:16:46;3.10;;;2.80;;
19575;SDS011;41589;51.196;7.074;2023-07-02T18:21:50;3.57;;;3.27;;
19575;SDS011;41589;51.196;7.074;2023-07-02T18:26:50;3.50;;;3.20;;
19575;SDS011;41589;51.196;7.074;2023-07-02T18:31:51;4.47;;;3.50;;
19575;SDS011;41589;51.196;7.074;2023-07-02T18:36:52;3.50;;;3.20;;
19575;SDS011;41589;51.196;7.074;2023-07-02T18:41:59;3.40;;;3.10;;
19575;SDS011;41589;51.196;7.074;2023-07-02T18:47:01;3.40;;;3.07;;
19575;SDS011;41589;51.196;7.074;2023-07-02T18:52:11;3.07;;;2.80;;
19575;SDS011;41589;51.196;7.074;2023-07-02T18:57:13;4.70;;;3.90;;
19575;SDS011;41589;51.196;7.074;2023-07-02T19:02:17;3.10;;;2.80;;
19575;SDS011;41589;51.196;7.074;2023-07-02T19:07:18;4.07;;;3.20;;
19575;SDS011;41589;51.196;7.074;2023-07-02T19:12:20;3.63;;;3.30;;
19575;SDS011;41589;51.196;7.074;2023-07-02T19:17:21;3.73;;;3.40;;
19575;SDS011;41589;51.196;7.074;2023-07-02T19:22:21;4.93;;;3.67;;
19575;SDS011;41589;51.196;7.074;2023-07-02T19:27:22;3.27;;;2.97;;
19575;SDS011;41589;51.196;7.074;2023-07-02T19:32:23;3.40;;;3.10;;
19575;SDS011;41589;51.196;7.074;2023-07-02T19:37:24;3.50;;;3.20;;
19575;SDS011;41589;51.196;7.074;2023-07-02T19:42:25;3.47;;;3.17;;
19575;SDS011;41589;51.196;7.074;2023-07-02T19:47:26;3.93;;;3.07;;
19575;SDS011;41589;51.196;7.074;2023-07-02T19:52:29;3.73;;;3.37;;
19575;SDS011;41589;51.196;7.074;2023-07-02T19:57:30;4.67;;;3.60;;
19575;SDS011;41589;51.196;7.074;2023-07-02T20:02:31;3.00;;;2.70;;
19575;SDS011;41589;51.196;7.074;2023-07-02T20:07:31;3.40;;;3.10;;
19575;SDS011;41589;51.196;7.074;2023-07-02T20:12:32;3.00;;;2.80;;
19575;SDS011;41589;51.196;7.074;2023-07-02T20:17:32;4.53;;;3.30;;
19575;SDS011;41589;51.196;7.074;2023-07-02T20:22:34;3.53;;;3.23;;
19575;SDS011;41589;51.196;7.074;2023-07-02T20:27:35;3.20;;;2.90;;
19575;SDS011;41589;51.196;7.074;2023-07-02T20:32:35;3.00;;;2.67;;
19575;SDS011;41589;51.196;7.074;2023-07-02T20:37:36;3.47;;;3.17;;
19575;SDS011;41589;51.196;7.074;2023-07-02T20:42:37;3.27;;;2.97;;
19575;SDS011;41589;51.196;7.074;2023-07-02T20:47:41;3.37;;;2.77;;
19575;SDS011;41589;51.196;7.074;2023-07-02T20:52:42;3.50;;;3.20;;
19575;SDS011;41589;51.196;7.074;2023-07-02T20:57:45;2.70;;;2.50;;
19575;SDS011;41589;51.196;7.074;2023-07-02T21:02:51;3.43;;;2.60;;
19575;SDS011;41589;51.196;7.074;2023-07-02T21:07:52;3.30;;;2.50;;
19575;SDS011;41589;51.196;7.074;2023-07-02T21:12:52;2.90;;;2.60;;
19575;SDS011;41589;51.196;7.074;2023-07-02T21:17:53;4.10;;;2.83;;
19575;SDS011;41589;51.196;7.074;2023-07-02T21:22:53;3.57;;;2.50;;
19575;SDS011;41589;51.196;7.074;2023-07-02T21:27:53;2.63;;;2.43;;
19575;SDS011;41589;51.196;7.074;2023-07-02T21:32:54;4.27;;;2.80;;
19575;SDS011;41589;51.196;7.074;2023-07-02T21:37:54;2.60;;;2.40;;
19575;SDS011;41589;51.196;7.074;2023-07-02T21:42:54;3.53;;;2.93;;
19575;SDS011;41589;51.196;7.074;2023-07-02T21:47:58;2.40;;;2.20;;
19575;SDS011;41589;51.196;7.074;2023-07-02T21:53:02;2.40;;;2.10;;
19575;SDS011;41589;51.196;7.074;2023-07-02T21:58:05;3.47;;;2.20;;
19575;SDS011;41589;51.196;7.074;2023-07-02T22:03:05;3.40;;;2.37;;
19575;SDS011;41589;51.196;7.074;2023-07-02T22:08:06;2.37;;;2.17;;
19575;SDS011;41589;51.196;7.074;2023-07-02T22:13:06;1.93;;;1.80;;
19575;SDS011;41589;51.196;7.074;2023-07-02T22:18:07;2.23;;;2.00;;
19575;SDS011;41589;51.196;7.074;2023-07-02T22:23:07;4.33;;;2.10;;
19575;SDS011;41589;51.196;7.074;2023-07-02T22:28:09;3.40;;;1.87;;
19575;SDS011;41589;51.196;7.074;2023-07-02T22:33:09;4.37;;;2.00;;
19575;SDS011;41589;51.196;7.074;2023-07-02T22:38:10;2.50;;;1.80;;
19575;SDS011;41589;51.196;7.074;2023-07-02T22:43:30;3.87;;;1.90;;
19575;SDS011;41589;51.196;7.074;2023-07-02T22:48:31;2.17;;;1.80;;
19575;SDS011;41589;51.196;7.074;2023-07-02T22:53:40;2.03;;;1.73;;
19575;SDS011;41589;51.196;7.074;2023-07-02T22:58:44;2.73;;;1.50;;
19575;SDS011;41589;51.196;7.074;2023-07-02T23:03:45;2.97;;;1.80;;
19575;SDS011;41589;51.196;7.074;2023-07-02T23:08:45;3.03;;;1.67;;
19575;SDS011;41589;51.196;7.074;2023-07-02T23:13:45;2.90;;;1.80;;
19575;SDS011;41589;51.196;7.074;2023-07-02T23:18:46;2.57;;;1.80;;
19575;SDS011;41589;51.196;7.074;2023-07-02T23:23:46;2.53;;;1.60;;
19575;SDS011;41589;51.196;7.074;2023-07-02T23:28:47;4.10;;;1.50;;
19575;SDS011;41589;51.196;7.074;2023-07-02T23:33:54;1.80;;;1.53;;
19575;SDS011;41589;51.196;7.074;2023-07-02T23:38:54;4.00;;;1.83;;
19575;SDS011;41589;51.196;7.074;2023-07-02T23:44:00;2.83;;;1.50;;
19575;SDS011;41589;51.196;7.074;2023-07-02T23:49:02;2.63;;;1.83;;
19575;SDS011;41589;51.196;7.074;2023-07-02T23:54:03;2.73;;;1.50;;
19575;SDS011;41589;51.196;7.074;2023-07-02T23:59:03;2.90;;;1.70;;
